sensor_id;sensor_type;location;lat;lon;timestamp;P1;durP1;ratioP1;P2;durP2;ratioP2
23362;SDS011;11853;48.080;11.960;2023-10-31T00:02:07;2.47;;;1.35;;
23362;SDS011;11853;48.080;11.960;2023-10-31T00:04:33;1.02;;;0.88;;
23362;SDS011;11853;48.080;11.960;2023-10-31T00:06:58;3.38;;;1.27;;
23362;SDS011;11853;48.080;11.960;2023-10-31T00:09:24;0.90;;;0.90;;
23362;SDS011;11853;48.080;11.960;2023-10-31T00:11:49;1.60;;;1.10;;
23362;SDS011;11853;48.080;11.960;2023-10-31T00:14:16;1.13;;;0.80;;
23362;SDS011;11853;48.080;11.960;2023-10-31T00:16:41;0.73;;;0.70;;
23362;SDS011;11853;48.080;11.960;2023-10-31T00:19:07;0.75;;;0.40;;
23362;SDS011;11853;48.080;11.960;2023-10-31T00:21:32;1.30;;;0.50;;
23362;SDS011;11853;48.080;11.960;2023-10-31T00:23:58;0.63;;;0.40;;
23362;SDS011;11853;48.080;11.960;2023-10-31T00:26:24;0.40;;;0.30;;
23362;SDS011;11853;48.080;11.960;2023-10-31T00:28:49;1.50;;;0.47;;
23362;SDS011;11853;48.080;11.960;2023-10-31T00:31:15;0.60;;;0.30;;
23362;SDS011;11853;48.080;11.960;2023-10-31T00:33:40;0.68;;;0.35;;
23362;SDS011;11853;48.080;11.960;2023-10-31T00:36:06;0.85;;;0.40;;
23362;SDS011;11853;48.080;11.960;2023-10-31T00:38:32;0.28;;;0.22;;
23362;SDS011;11853;48.080;11.960;2023-10-31T00:40:58;0.47;;;0.47;;
23362;SDS011;11853;48.080;11.960;2023-10-31T00:43:24;0.30;;;0.30;;
23362;SDS011;11853;48.080;11.960;2023-10-31T00:45:50;0.22;;;0.22;;
23362;SDS011;11853;48.080;11.960;2023-10-31T00:48:15;0.45;;;0.20;;
23362;SDS011;11853;48.080;11.960;2023-10-31T00:50:41;0.45;;;0.30;;
23362;SDS011;11853;48.080;11.960;2023-10-31T00:53:07;0.10;;;0.10;;
23362;SDS011;11853;48.080;11.960;2023-10-31T00:55:33;0.20;;;0.20;;
23362;SDS011;11853;48.080;11.960;2023-10-31T00:57:58;1.25;;;0.20;;
23362;SDS011;11853;48.080;11.960;2023-10-31T01:00:24;0.20;;;0.20;;
23362;SDS011;11853;48.080;11.960;2023-10-31T01:02:49;2.65;;;0.30;;
23362;SDS011;11853;48.080;11.960;2023-10-31T01:05:15;0.20;;;0.20;;
23362;SDS011;11853;48.080;11.960;2023-10-31T01:07:41;0.35;;;0.35;;
23362;SDS011;11853;48.080;11.960;2023-10-31T01:10:07;0.32;;;0.30;;
23362;SDS011;11853;48.080;11.960;2023-10-31T01:12:33;0.30;;;0.30;;
23362;SDS011;11853;48.080;11.960;2023-10-31T01:14:59;1.05;;;0.30;;
23362;SDS011;11853;48.080;11.960;2023-10-31T01:17:24;0.80;;;0.20;;
23362;SDS011;11853;48.080;11.960;2023-10-31T01:19:50;0.20;;;0.20;;
23362;SDS011;11853;48.080;11.960;2023-10-31T01:22:15;0.20;;;0.20;;
23362;SDS011;11853;48.080;11.960;2023-10-31T01:24:41;0.20;;;0.20;;
23362;SDS011;11853;48.080;11.960;2023-10-31T01:27:07;0.22;;;0.22;;
23362;SDS011;11853;48.080;11.960;2023-10-31T01:29:32;0.35;;;0.20;;
23362;SDS011;11853;48.080;11.960;2023-10-31T01:31:58;1.83;;;0.30;;
23362;SDS011;11853;48.080;11.960;2023-10-31T01:34:23;0.28;;;0.28;;
23362;SDS011;11853;48.080;11.960;2023-10-31T01:36:49;0.40;;;0.40;;
23362;SDS011;11853;48.080;11.960;2023-10-31T01:39:14;0.52;;;0.52;;
23362;SDS011;11853;48.080;11.960;2023-10-31T01:41:43;0.10;;;0.10;;
23362;SDS011;11853;48.080;11.960;2023-10-31T01:44:09;0.30;;;0.30;;
23362;SDS011;11853;48.080;11.960;2023-10-31T01:46:35;0.35;;;0.25;;
23362;SDS011;11853;48.080;11.960;2023-10-31T01:49:01;0.25;;;0.20;;
23362;SDS011;11853;48.080;11.960;2023-10-31T01:51:28;0.20;;;0.20;;
23362;SDS011;11853;48.080;11.960;2023-10-31T01:53:54;0.10;;;0.10;;
23362;SDS011;11853;48.080;11.960;2023-10-31T01:56:20;0.20;;;0.20;;
23362;SDS011;11853;48.080;11.960;2023-10-31T01:58:47;0.40;;;0.30;;
23362;SDS011;11853;48.080;11.960;2023-10-31T02:01:14;0.20;;;0.20;;
23362;SDS011;11853;48.080;11.960;2023-10-31T02:03:39;0.10;;;0.10;;
23362;SDS011;11853;48.080;11.960;2023-10-31T02:06:05;0.30;;;0.30;;
23362;SDS011;11853;48.080;11.960;2023-10-31T02:08:30;0.52;;;0.20;;
23362;SDS011;11853;48.080;11.960;2023-10-31T02:10:56;1.08;;;0.10;;
23362;SDS011;11853;48.080;11.960;2023-10-31T02:13:22;0.25;;;0.15;;
23362;SDS011;11853;48.080;11.960;2023-10-31T02:15:48;0.10;;;0.10;;
23362;SDS011;11853;48.080;11.960;2023-10-31T02:18:14;0.10;;;0.10;;
23362;SDS011;11853;48.080;11.960;2023-10-31T02:20:39;0.00;;;0.00;;
23362;SDS011;11853;48.080;11.960;2023-10-31T02:23:05;0.10;;;0.10;;
23362;SDS011;11853;48.080;11.960;2023-10-31T02:25:31;0.10;;;0.10;;
23362;SDS011;11853;48.080;11.960;2023-10-31T02:27:56;1.88;;;0.10;;
23362;SDS011;11853;48.080;11.960;2023-10-31T02:30:22;0.10;;;0.10;;
23362;SDS011;11853;48.080;11.960;2023-10-31T02:32:48;0.20;;;0.17;;
23362;SDS011;11853;48.080;11.960;2023-10-31T02:35:15;1.35;;;0.20;;
23362;SDS011;11853;48.080;11.960;2023-10-31T02:37:41;0.10;;;0.10;;
23362;SDS011;11853;48.080;11.960;2023-10-31T02:40:07;0.10;;;0.10;;
23362;SDS011;11853;48.080;11.960;2023-10-31T02:42:33;0.47;;;0.10;;
23362;SDS011;11853;48.080;11.960;2023-10-31T02:44:59;0.17;;;0.10;;
23362;SDS011;11853;48.080;11.960;2023-10-31T02:47:24;0.30;;;0.10;;
23362;SDS011;11853;48.080;11.960;2023-10-31T02:49:50;0.52;;;0.10;;
23362;SDS011;11853;48.080;11.960;2023-10-31T02:52:15;0.28;;;0.20;;
23362;SDS011;11853;48.080;11.960;2023-10-31T02:54:41;0.30;;;0.10;;
23362;SDS011;11853;48.080;11.960;2023-10-31T02:57:07;0.20;;;0.20;;
23362;SDS011;11853;48.080;11.960;2023-10-31T02:59:33;0.90;;;0.30;;
23362;SDS011;11853;48.080;11.960;2023-10-31T03:01:59;0.10;;;0.10;;
23362;SDS011;11853;48.080;11.960;2023-10-31T03:04:25;0.10;;;0.10;;
23362;SDS011;11853;48.080;11.960;2023-10-31T03:06:50;0.55;;;0.32;;
23362;SDS011;11853;48.080;11.960;2023-10-31T03:09:16;0.10;;;0.10;;
23362;SDS011;11853;48.080;11.960;2023-10-31T03:11:42;0.85;;;0.38;;
23362;SDS011;11853;48.080;11.960;2023-10-31T03:14:07;1.00;;;0.20;;
23362;SDS011;11853;48.080;11.960;2023-10-31T03:16:33;0.08;;;0.08;;
23362;SDS011;11853;48.080;11.960;2023-10-31T03:18:58;0.28;;;0.10;;
23362;SDS011;11853;48.080;11.960;2023-10-31T03:21:24;0.10;;;0.10;;
23362;SDS011;11853;48.080;11.960;2023-10-31T03:23:50;0.10;;;0.10;;
23362;SDS011;11853;48.080;11.960;2023-10-31T03:26:18;0.10;;;0.10;;
23362;SDS011;11853;48.080;11.960;2023-10-31T03:28:44;0.10;;;0.10;;
23362;SDS011;11853;48.080;11.960;2023-10-31T03:31:11;0.30;;;0.10;;
23362;SDS011;11853;48.080;11.960;2023-10-31T03:33:37;0.20;;;0.20;;
23362;SDS011;11853;48.080;11.960;2023-10-31T03:36:03;0.10;;;0.10;;
23362;SDS011;11853;48.080;11.960;2023-10-31T03:38:30;0.55;;;0.03;;
23362;SDS011;11853;48.080;11.960;2023-10-31T03:40:56;0.20;;;0.20;;
23362;SDS011;11853;48.080;11.960;2023-10-31T03:43:22;0.03;;;0.03;;
23362;SDS011;11853;48.080;11.960;2023-10-31T03:45:47;0.28;;;0.20;;
23362;SDS011;11853;48.080;11.960;2023-10-31T03:48:13;0.10;;;0.10;;
23362;SDS011;11853;48.080;11.960;2023-10-31T03:50:39;0.65;;;0.10;;
23362;SDS011;11853;48.080;11.960;2023-10-31T03:53:04;0.98;;;0.25;;
23362;SDS011;11853;48.080;11.960;2023-10-31T03:55:30;0.10;;;0.10;;
23362;SDS011;11853;48.080;11.960;2023-10-31T03:57:56;0.10;;;0.10;;
23362;SDS011;11853;48.080;11.960;2023-10-31T04:00:21;0.10;;;0.10;;
23362;SDS011;11853;48.080;11.960;2023-10-31T04:02:47;2.00;;;0.30;;
23362;SDS011;11853;48.080;11.960;2023-10-31T04:05:12;0.35;;;0.30;;
23362;SDS011;11853;48.080;11.960;2023-10-31T04:07:38;0.20;;;0.20;;
23362;SDS011;11853;48.080;11.960;2023-10-31T04:10:04;0.52;;;0.20;;
23362;SDS011;11853;48.080;11.960;2023-10-31T04:12:30;0.28;;;0.20;;
23362;SDS011;11853;48.080;11.960;2023-10-31T04:14:56;0.57;;;0.57;;
23362;SDS011;11853;48.080;11.960;2023-10-31T04:17:22;0.20;;;0.20;;
23362;SDS011;11853;48.080;11.960;2023-10-31T04:19:48;0.77;;;0.38;;
23362;SDS011;11853;48.080;11.960;2023-10-31T04:22:13;0.20;;;0.20;;
23362;SDS011;11853;48.080;11.960;2023-10-31T04:24:39;0.13;;;0.13;;
23362;SDS011;11853;48.080;11.960;2023-10-31T04:27:05;0.57;;;0.20;;
23362;SDS011;11853;48.080;11.960;2023-10-31T04:29:32;1.30;;;0.30;;
23362;SDS011;11853;48.080;11.960;2023-10-31T04:31:57;0.20;;;0.20;;
23362;SDS011;11853;48.080;11.960;2023-10-31T04:34:23;1.08;;;0.10;;
23362;SDS011;11853;48.080;11.960;2023-10-31T04:36:49;0.80;;;0.20;;
23362;SDS011;11853;48.080;11.960;2023-10-31T04:39:14;1.52;;;0.20;;
23362;SDS011;11853;48.080;11.960;2023-10-31T04:41:40;0.63;;;0.22;;
23362;SDS011;11853;48.080;11.960;2023-10-31T04:44:05;0.32;;;0.20;;
23362;SDS011;11853;48.080;11.960;2023-10-31T04:46:31;0.32;;;0.25;;
23362;SDS011;11853;48.080;11.960;2023-10-31T04:48:57;0.93;;;0.35;;
23362;SDS011;11853;48.080;11.960;2023-10-31T04:51:22;1.35;;;0.52;;
23362;SDS011;11853;48.080;11.960;2023-10-31T04:53:48;0.77;;;0.20;;
23362;SDS011;11853;48.080;11.960;2023-10-31T04:56:14;1.10;;;0.30;;
23362;SDS011;11853;48.080;11.960;2023-10-31T04:58:41;0.17;;;0.17;;
23362;SDS011;11853;48.080;11.960;2023-10-31T05:01:11;1.25;;;0.47;;
23362;SDS011;11853;48.080;11.960;2023-10-31T05:03:37;0.52;;;0.43;;
23362;SDS011;11853;48.080;11.960;2023-10-31T05:06:03;1.10;;;0.40;;
23362;SDS011;11853;48.080;11.960;2023-10-31T05:08:30;0.32;;;0.20;;
23362;SDS011;11853;48.080;11.960;2023-10-31T05:10:56;0.40;;;0.40;;
23362;SDS011;11853;48.080;11.960;2023-10-31T05:13:22;1.08;;;0.43;;
23362;SDS011;11853;48.080;11.960;2023-10-31T05:15:48;1.08;;;0.35;;
23362;SDS011;11853;48.080;11.960;2023-10-31T05:18:13;0.50;;;0.30;;
23362;SDS011;11853;48.080;11.960;2023-10-31T05:20:39;0.55;;;0.38;;
23362;SDS011;11853;48.080;11.960;2023-10-31T05:23:04;0.60;;;0.60;;
23362;SDS011;11853;48.080;11.960;2023-10-31T05:25:30;0.75;;;0.30;;
23362;SDS011;11853;48.080;11.960;2023-10-31T05:27:56;1.75;;;0.68;;
23362;SDS011;11853;48.080;11.960;2023-10-31T05:30:21;0.40;;;0.40;;
23362;SDS011;11853;48.080;11.960;2023-10-31T05:32:47;0.32;;;0.32;;
23362;SDS011;11853;48.080;11.960;2023-10-31T05:35:12;0.32;;;0.30;;
23362;SDS011;11853;48.080;11.960;2023-10-31T05:37:38;0.68;;;0.30;;
23362;SDS011;11853;48.080;11.960;2023-10-31T05:40:04;0.45;;;0.40;;
23362;SDS011;11853;48.080;11.960;2023-10-31T05:42:30;1.25;;;0.90;;
23362;SDS011;11853;48.080;11.960;2023-10-31T05:44:56;1.00;;;0.90;;
23362;SDS011;11853;48.080;11.960;2023-10-31T05:47:22;0.80;;;0.50;;
23362;SDS011;11853;48.080;11.960;2023-10-31T05:49:48;0.93;;;0.70;;
23362;SDS011;11853;48.080;11.960;2023-10-31T05:52:13;1.52;;;0.47;;
23362;SDS011;11853;48.080;11.960;2023-10-31T05:54:39;0.63;;;0.30;;
23362;SDS011;11853;48.080;11.960;2023-10-31T05:57:05;1.95;;;0.40;;
23362;SDS011;11853;48.080;11.960;2023-10-31T05:59:31;2.13;;;0.45;;
23362;SDS011;11853;48.080;11.960;2023-10-31T06:01:57;1.25;;;0.50;;
23362;SDS011;11853;48.080;11.960;2023-10-31T06:04:23;0.88;;;0.40;;
23362;SDS011;11853;48.080;11.960;2023-10-31T06:06:50;0.55;;;0.50;;
23362;SDS011;11853;48.080;11.960;2023-10-31T06:09:15;2.15;;;0.40;;
23362;SDS011;11853;48.080;11.960;2023-10-31T06:11:41;1.65;;;0.50;;
23362;SDS011;11853;48.080;11.960;2023-10-31T06:14:09;1.08;;;0.50;;
23362;SDS011;11853;48.080;11.960;2023-10-31T06:16:39;1.25;;;0.50;;
23362;SDS011;11853;48.080;11.960;2023-10-31T06:19:06;1.52;;;0.77;;
23362;SDS011;11853;48.080;11.960;2023-10-31T06:21:32;2.03;;;0.35;;
23362;SDS011;11853;48.080;11.960;2023-10-31T06:23:57;0.45;;;0.45;;
23362;SDS011;11853;48.080;11.960;2023-10-31T06:26:23;0.47;;;0.47;;
23362;SDS011;11853;48.080;11.960;2023-10-31T06:28:48;0.90;;;0.68;;
23362;SDS011;11853;48.080;11.960;2023-10-31T06:31:14;1.38;;;0.60;;
23362;SDS011;11853;48.080;11.960;2023-10-31T06:33:40;0.55;;;0.45;;
23362;SDS011;11853;48.080;11.960;2023-10-31T06:36:06;0.55;;;0.55;;
23362;SDS011;11853;48.080;11.960;2023-10-31T06:38:32;1.25;;;0.65;;
23362;SDS011;11853;48.080;11.960;2023-10-31T06:40:58;0.68;;;0.55;;
23362;SDS011;11853;48.080;11.960;2023-10-31T06:43:24;2.22;;;0.90;;
23362;SDS011;11853;48.080;11.960;2023-10-31T06:45:49;2.33;;;1.02;;
23362;SDS011;11853;48.080;11.960;2023-10-31T06:48:15;1.85;;;0.55;;
23362;SDS011;11853;48.080;11.960;2023-10-31T06:50:40;2.13;;;0.75;;
23362;SDS011;11853;48.080;11.960;2023-10-31T06:53:06;0.95;;;0.70;;
23362;SDS011;11853;48.080;11.960;2023-10-31T06:55:32;1.27;;;0.90;;
23362;SDS011;11853;48.080;11.960;2023-10-31T06:57:57;2.00;;;0.40;;
23362;SDS011;11853;48.080;11.960;2023-10-31T07:00:23;3.47;;;0.55;;
23362;SDS011;11853;48.080;11.960;2023-10-31T07:02:49;0.50;;;0.50;;
23362;SDS011;11853;48.080;11.960;2023-10-31T07:05:14;1.35;;;0.55;;
23362;SDS011;11853;48.080;11.960;2023-10-31T07:07:41;1.20;;;0.60;;
23362;SDS011;11853;48.080;11.960;2023-10-31T07:10:07;2.05;;;0.80;;
23362;SDS011;11853;48.080;11.960;2023-10-31T07:12:32;2.95;;;2.40;;
23362;SDS011;11853;48.080;11.960;2023-10-31T07:14:58;1.55;;;1.40;;
23362;SDS011;11853;48.080;11.960;2023-10-31T07:17:24;1.83;;;1.42;;
23362;SDS011;11853;48.080;11.960;2023-10-31T07:19:50;1.02;;;0.70;;
23362;SDS011;11853;48.080;11.960;2023-10-31T07:22:16;0.50;;;0.40;;
23362;SDS011;11853;48.080;11.960;2023-10-31T07:24:41;0.60;;;0.32;;
23362;SDS011;11853;48.080;11.960;2023-10-31T07:27:08;1.83;;;0.55;;
23362;SDS011;11853;48.080;11.960;2023-10-31T07:29:34;0.30;;;0.30;;
23362;SDS011;11853;48.080;11.960;2023-10-31T07:32:00;0.93;;;0.40;;
23362;SDS011;11853;48.080;11.960;2023-10-31T07:34:26;0.80;;;0.70;;
23362;SDS011;11853;48.080;11.960;2023-10-31T07:36:54;0.55;;;0.50;;
23362;SDS011;11853;48.080;11.960;2023-10-31T07:39:19;1.00;;;0.47;;
23362;SDS011;11853;48.080;11.960;2023-10-31T07:41:45;1.75;;;0.85;;
23362;SDS011;11853;48.080;11.960;2023-10-31T07:44:11;0.82;;;0.60;;
23362;SDS011;11853;48.080;11.960;2023-10-31T07:46:37;0.98;;;0.88;;
23362;SDS011;11853;48.080;11.960;2023-10-31T07:49:02;0.85;;;0.65;;
23362;SDS011;11853;48.080;11.960;2023-10-31T07:51:28;0.75;;;0.60;;
23362;SDS011;11853;48.080;11.960;2023-10-31T07:53:57;0.90;;;0.70;;
23362;SDS011;11853;48.080;11.960;2023-10-31T07:56:24;0.52;;;0.45;;
23362;SDS011;11853;48.080;11.960;2023-10-31T07:58:50;0.50;;;0.50;;
23362;SDS011;11853;48.080;11.960;2023-10-31T08:01:17;0.55;;;0.40;;
23362;SDS011;11853;48.080;11.960;2023-10-31T08:03:43;0.90;;;0.43;;
23362;SDS011;11853;48.080;11.960;2023-10-31T08:06:10;0.75;;;0.47;;
23362;SDS011;11853;48.080;11.960;2023-10-31T08:08:36;1.05;;;0.47;;
23362;SDS011;11853;48.080;11.960;2023-10-31T08:11:01;2.15;;;0.70;;
23362;SDS011;11853;48.080;11.960;2023-10-31T08:13:28;1.75;;;0.63;;
23362;SDS011;11853;48.080;11.960;2023-10-31T08:15:55;0.65;;;0.60;;
23362;SDS011;11853;48.080;11.960;2023-10-31T08:18:21;1.42;;;0.70;;
23362;SDS011;11853;48.080;11.960;2023-10-31T08:20:48;1.02;;;0.75;;
23362;SDS011;11853;48.080;11.960;2023-10-31T08:23:16;1.05;;;0.63;;
23362;SDS011;11853;48.080;11.960;2023-10-31T08:25:42;1.80;;;0.50;;
23362;SDS011;11853;48.080;11.960;2023-10-31T08:28:08;1.25;;;0.85;;
23362;SDS011;11853;48.080;11.960;2023-10-31T08:30:34;1.95;;;1.00;;
23362;SDS011;11853;48.080;11.960;2023-10-31T08:33:00;1.75;;;1.17;;
23362;SDS011;11853;48.080;11.960;2023-10-31T08:35:26;1.58;;;1.45;;
23362;SDS011;11853;48.080;11.960;2023-10-31T08:37:52;1.77;;;1.10;;
23362;SDS011;11853;48.080;11.960;2023-10-31T08:40:17;1.98;;;0.90;;
23362;SDS011;11853;48.080;11.960;2023-10-31T08:42:43;1.95;;;1.05;;
23362;SDS011;11853;48.080;11.960;2023-10-31T08:45:10;3.92;;;1.00;;
23362;SDS011;11853;48.080;11.960;2023-10-31T08:47:36;1.17;;;1.10;;
23362;SDS011;11853;48.080;11.960;2023-10-31T08:50:01;2.08;;;1.02;;
23362;SDS011;11853;48.080;11.960;2023-10-31T08:52:27;2.75;;;0.90;;
23362;SDS011;11853;48.080;11.960;2023-10-31T08:54:52;1.60;;;0.90;;
23362;SDS011;11853;48.080;11.960;2023-10-31T08:57:18;1.77;;;1.02;;
23362;SDS011;11853;48.080;11.960;2023-10-31T08:59:44;2.00;;;1.00;;
23362;SDS011;11853;48.080;11.960;2023-10-31T09:02:09;1.67;;;0.73;;
23362;SDS011;11853;48.080;11.960;2023-10-31T09:04:35;2.70;;;0.93;;
23362;SDS011;11853;48.080;11.960;2023-10-31T09:07:00;1.80;;;0.90;;
23362;SDS011;11853;48.080;11.960;2023-10-31T09:09:26;2.38;;;1.00;;
23362;SDS011;11853;48.080;11.960;2023-10-31T09:11:52;2.25;;;1.15;;
23362;SDS011;11853;48.080;11.960;2023-10-31T09:14:17;4.78;;;1.23;;
23362;SDS011;11853;48.080;11.960;2023-10-31T09:16:43;1.85;;;1.10;;
23362;SDS011;11853;48.080;11.960;2023-10-31T09:19:08;2.75;;;1.63;;
23362;SDS011;11853;48.080;11.960;2023-10-31T09:21:34;2.80;;;1.58;;
23362;SDS011;11853;48.080;11.960;2023-10-31T09:24:00;2.97;;;1.55;;
23362;SDS011;11853;48.080;11.960;2023-10-31T09:26:26;2.50;;;1.45;;
23362;SDS011;11853;48.080;11.960;2023-10-31T09:28:51;2.35;;;1.30;;
23362;SDS011;11853;48.080;11.960;2023-10-31T09:31:17;3.65;;;1.95;;
23362;SDS011;11853;48.080;11.960;2023-10-31T09:33:43;4.60;;;1.95;;
23362;SDS011;11853;48.080;11.960;2023-10-31T09:36:10;6.85;;;4.00;;
23362;SDS011;11853;48.080;11.960;2023-10-31T09:38:36;10.63;;;5.88;;
23362;SDS011;11853;48.080;11.960;2023-10-31T09:41:02;6.13;;;3.90;;
23362;SDS011;11853;48.080;11.960;2023-10-31T09:43:28;2.78;;;1.60;;
23362;SDS011;11853;48.080;11.960;2023-10-31T09:45:53;3.88;;;1.15;;
23362;SDS011;11853;48.080;11.960;2023-10-31T09:48:20;0.82;;;0.70;;
23362;SDS011;11853;48.080;11.960;2023-10-31T09:50:46;2.13;;;1.20;;
23362;SDS011;11853;48.080;11.960;2023-10-31T09:53:13;2.03;;;1.15;;
23362;SDS011;11853;48.080;11.960;2023-10-31T09:55:40;1.08;;;0.90;;
23362;SDS011;11853;48.080;11.960;2023-10-31T09:58:06;3.65;;;1.10;;
23362;SDS011;11853;48.080;11.960;2023-10-31T10:00:32;2.53;;;1.23;;
23362;SDS011;11853;48.080;11.960;2023-10-31T10:02:57;2.83;;;1.60;;
23362;SDS011;11853;48.080;11.960;2023-10-31T10:05:24;3.03;;;1.25;;
23362;SDS011;11853;48.080;11.960;2023-10-31T10:07:50;3.22;;;1.20;;
23362;SDS011;11853;48.080;11.960;2023-10-31T10:10:16;2.90;;;0.88;;
23362;SDS011;11853;48.080;11.960;2023-10-31T10:12:44;2.67;;;1.10;;
23362;SDS011;11853;48.080;11.960;2023-10-31T10:15:11;2.58;;;1.13;;
23362;SDS011;11853;48.080;11.960;2023-10-31T10:17:37;2.17;;;1.20;;
23362;SDS011;11853;48.080;11.960;2023-10-31T10:20:10;3.38;;;1.20;;
23362;SDS011;11853;48.080;11.960;2023-10-31T10:22:40;1.95;;;1.00;;
23362;SDS011;11853;48.080;11.960;2023-10-31T10:25:07;3.50;;;1.30;;
23362;SDS011;11853;48.080;11.960;2023-10-31T10:27:34;3.58;;;1.65;;
23362;SDS011;11853;48.080;11.960;2023-10-31T10:30:01;4.22;;;1.50;;
23362;SDS011;11853;48.080;11.960;2023-10-31T10:32:28;2.47;;;1.20;;
23362;SDS011;11853;48.080;11.960;2023-10-31T10:34:54;2.97;;;1.33;;
23362;SDS011;11853;48.080;11.960;2023-10-31T10:37:20;3.05;;;1.80;;
23362;SDS011;11853;48.080;11.960;2023-10-31T10:39:49;2.65;;;1.70;;
23362;SDS011;11853;48.080;11.960;2023-10-31T10:42:23;2.03;;;1.38;;
23362;SDS011;11853;48.080;11.960;2023-10-31T10:44:57;3.05;;;1.40;;
23362;SDS011;11853;48.080;11.960;2023-10-31T10:47:28;3.10;;;1.15;;
23362;SDS011;11853;48.080;11.960;2023-10-31T10:49:54;1.58;;;1.10;;
23362;SDS011;11853;48.080;11.960;2023-10-31T10:52:27;1.63;;;1.33;;
23362;SDS011;11853;48.080;11.960;2023-10-31T10:55:03;1.88;;;0.80;;
23362;SDS011;11853;48.080;11.960;2023-10-31T10:57:37;2.27;;;0.97;;
23362;SDS011;11853;48.080;11.960;2023-10-31T11:00:07;2.58;;;1.00;;
23362;SDS011;11853;48.080;11.960;2023-10-31T11:02:35;4.28;;;1.00;;
23362;SDS011;11853;48.080;11.960;2023-10-31T11:05:02;1.88;;;0.82;;
23362;SDS011;11853;48.080;11.960;2023-10-31T11:07:32;2.67;;;1.60;;
23362;SDS011;11853;48.080;11.960;2023-10-31T11:09:59;4.90;;;1.58;;
23362;SDS011;11853;48.080;11.960;2023-10-31T11:12:29;3.40;;;1.45;;
23362;SDS011;11853;48.080;11.960;2023-10-31T11:14:56;3.85;;;1.90;;
23362;SDS011;11853;48.080;11.960;2023-10-31T11:17:42;1.80;;;1.30;;
23362;SDS011;11853;48.080;11.960;2023-10-31T11:20:10;2.20;;;1.38;;
23362;SDS011;11853;48.080;11.960;2023-10-31T11:22:46;2.88;;;1.60;;
23362;SDS011;11853;48.080;11.960;2023-10-31T11:25:19;2.58;;;1.38;;
23362;SDS011;11853;48.080;11.960;2023-10-31T11:27:45;2.45;;;1.30;;
23362;SDS011;11853;48.080;11.960;2023-10-31T11:30:20;3.45;;;1.40;;
23362;SDS011;11853;48.080;11.960;2023-10-31T11:32:52;3.13;;;1.48;;
23362;SDS011;11853;48.080;11.960;2023-10-31T11:35:19;2.13;;;1.30;;
23362;SDS011;11853;48.080;11.960;2023-10-31T11:37:49;4.15;;;1.60;;
23362;SDS011;11853;48.080;11.960;2023-10-31T11:40:27;5.72;;;2.42;;
23362;SDS011;11853;48.080;11.960;2023-10-31T11:42:53;5.43;;;1.70;;
23362;SDS011;11853;48.080;11.960;2023-10-31T11:45:34;3.72;;;1.95;;
23362;SDS011;11853;48.080;11.960;2023-10-31T11:48:02;3.90;;;2.72;;
23362;SDS011;11853;48.080;11.960;2023-10-31T11:50:32;3.47;;;2.22;;
23362;SDS011;11853;48.080;11.960;2023-10-31T11:52:59;2.05;;;1.55;;
23362;SDS011;11853;48.080;11.960;2023-10-31T11:55:29;3.67;;;1.48;;
23362;SDS011;11853;48.080;11.960;2023-10-31T11:57:57;2.42;;;1.63;;
23362;SDS011;11853;48.080;11.960;2023-10-31T12:00:23;3.40;;;1.50;;
23362;SDS011;11853;48.080;11.960;2023-10-31T12:02:59;3.47;;;1.40;;
23362;SDS011;11853;48.080;11.960;2023-10-31T12:05:25;2.65;;;1.00;;
23362;SDS011;11853;48.080;11.960;2023-10-31T12:07:51;2.42;;;0.90;;
23362;SDS011;11853;48.080;11.960;2023-10-31T12:10:23;1.48;;;1.25;;
23362;SDS011;11853;48.080;11.960;2023-10-31T12:12:52;3.53;;;1.40;;
23362;SDS011;11853;48.080;11.960;2023-10-31T12:15:18;1.40;;;0.90;;
23362;SDS011;11853;48.080;11.960;2023-10-31T12:17:44;3.65;;;1.80;;
23362;SDS011;11853;48.080;11.960;2023-10-31T12:20:10;3.58;;;2.33;;
23362;SDS011;11853;48.080;11.960;2023-10-31T12:22:36;2.17;;;1.50;;
23362;SDS011;11853;48.080;11.960;2023-10-31T12:25:05;2.42;;;1.27;;
23362;SDS011;11853;48.080;11.960;2023-10-31T12:27:42;1.30;;;0.90;;
23362;SDS011;11853;48.080;11.960;2023-10-31T12:30:11;2.45;;;1.27;;
23362;SDS011;11853;48.080;11.960;2023-10-31T12:32:44;4.95;;;1.30;;
23362;SDS011;11853;48.080;11.960;2023-10-31T12:35:11;2.25;;;1.20;;
23362;SDS011;11853;48.080;11.960;2023-10-31T12:37:42;1.98;;;1.15;;
23362;SDS011;11853;48.080;11.960;2023-10-31T12:40:10;2.03;;;1.05;;
23362;SDS011;11853;48.080;11.960;2023-10-31T12:42:37;1.70;;;1.00;;
23362;SDS011;11853;48.080;11.960;2023-10-31T12:45:03;6.32;;;2.53;;
23362;SDS011;11853;48.080;11.960;2023-10-31T12:47:30;8.95;;;4.93;;
23362;SDS011;11853;48.080;11.960;2023-10-31T12:50:05;5.93;;;2.90;;
23362;SDS011;11853;48.080;11.960;2023-10-31T12:55:25;3.05;;;1.92;;
23362;SDS011;11853;48.080;11.960;2023-10-31T12:57:53;1.58;;;1.25;;
23362;SDS011;11853;48.080;11.960;2023-10-31T13:00:20;3.88;;;1.20;;
23362;SDS011;11853;48.080;11.960;2023-10-31T13:02:52;3.42;;;1.27;;
23362;SDS011;11853;48.080;11.960;2023-10-31T13:05:25;3.25;;;1.70;;
23362;SDS011;11853;48.080;11.960;2023-10-31T13:07:52;4.32;;;3.05;;
23362;SDS011;11853;48.080;11.960;2023-10-31T13:10:19;8.73;;;6.13;;
23362;SDS011;11853;48.080;11.960;2023-10-31T13:12:48;6.18;;;3.97;;
23362;SDS011;11853;48.080;11.960;2023-10-31T13:15:15;8.13;;;5.05;;
23362;SDS011;11853;48.080;11.960;2023-10-31T13:17:41;4.25;;;2.50;;
23362;SDS011;11853;48.080;11.960;2023-10-31T13:20:09;2.97;;;1.58;;
23362;SDS011;11853;48.080;11.960;2023-10-31T13:22:39;1.40;;;1.30;;
23362;SDS011;11853;48.080;11.960;2023-10-31T13:25:06;1.05;;;0.90;;
23362;SDS011;11853;48.080;11.960;2023-10-31T13:27:35;2.38;;;1.20;;
23362;SDS011;11853;48.080;11.960;2023-10-31T13:30:01;1.55;;;1.05;;
23362;SDS011;11853;48.080;11.960;2023-10-31T13:32:27;3.15;;;2.38;;
23362;SDS011;11853;48.080;11.960;2023-10-31T13:34:53;3.78;;;2.72;;
23362;SDS011;11853;48.080;11.960;2023-10-31T13:37:18;2.22;;;1.60;;
23362;SDS011;11853;48.080;11.960;2023-10-31T13:39:44;1.90;;;1.65;;
23362;SDS011;11853;48.080;11.960;2023-10-31T13:42:10;1.48;;;1.35;;
23362;SDS011;11853;48.080;11.960;2023-10-31T13:44:36;3.28;;;1.42;;
23362;SDS011;11853;48.080;11.960;2023-10-31T13:47:02;3.63;;;1.00;;
23362;SDS011;11853;48.080;11.960;2023-10-31T13:49:28;1.52;;;0.95;;
23362;SDS011;11853;48.080;11.960;2023-10-31T13:51:54;1.55;;;0.80;;
23362;SDS011;11853;48.080;11.960;2023-10-31T13:54:19;1.48;;;0.70;;
23362;SDS011;11853;48.080;11.960;2023-10-31T13:56:46;1.60;;;1.00;;
23362;SDS011;11853;48.080;11.960;2023-10-31T13:59:12;3.97;;;0.93;;
23362;SDS011;11853;48.080;11.960;2023-10-31T14:01:38;1.02;;;0.85;;
23362;SDS011;11853;48.080;11.960;2023-10-31T14:04:05;1.15;;;0.60;;
23362;SDS011;11853;48.080;11.960;2023-10-31T14:06:32;1.08;;;0.60;;
23362;SDS011;11853;48.080;11.960;2023-10-31T14:08:58;0.50;;;0.50;;
23362;SDS011;11853;48.080;11.960;2023-10-31T14:11:25;0.50;;;0.40;;
23362;SDS011;11853;48.080;11.960;2023-10-31T14:13:51;0.80;;;0.70;;
23362;SDS011;11853;48.080;11.960;2023-10-31T14:16:17;1.25;;;0.95;;
23362;SDS011;11853;48.080;11.960;2023-10-31T14:18:44;1.95;;;1.67;;
23362;SDS011;11853;48.080;11.960;2023-10-31T14:21:11;3.50;;;2.42;;
23362;SDS011;11853;48.080;11.960;2023-10-31T14:23:37;4.28;;;2.85;;
23362;SDS011;11853;48.080;11.960;2023-10-31T14:26:03;4.30;;;3.28;;
23362;SDS011;11853;48.080;11.960;2023-10-31T14:28:28;4.10;;;3.13;;
23362;SDS011;11853;48.080;11.960;2023-10-31T14:30:54;4.00;;;3.15;;
23362;SDS011;11853;48.080;11.960;2023-10-31T14:33:20;2.55;;;2.20;;